Roaring Branch, Pennsylvania
Current Conditions -  °F | °C
As of 5:54 AM on Friday 28 Nov 2014 (Local Time) from KIPT Reporting Station
Light Snow Light Snow  
Wind Chill: -4°   Ceiling: 3200
Heat Index: -1°   Visibility: 9mi
Dew Point: -6°   Wind: 6mph
Humidity: 69%   Direction: 300°WNW
Pressure: 30.17"   Gusts: NA
Location:  41.57°N, 76.95°W
Report Text: KIPT 281054Z AUTO 30005KT 9SM -SN BKN032 BKN039 OVC050 M01/M06 A3017 RMK AO2 SNB47 SLP223 P0000 T10111061
Loading
Personal Weather Stations






























Interactive Weather Map New forecast layout! Learn more

10-Day Weather Forecast

Advertisements
Track Severe Weather on mobile